Time;durP1;ratioP1;P1;durP2;ratioP2;P2;SDS_P1;SDS_P2;PMS_P1;PMS_P2;Temp;Humidity;BMP_temperature;BMP_pressure;BME280_temperature;BME280_humidity;BME280_pressure;Samples;Min_cycle;Max_cycle;Signal;HPM_P1;HPM_P2
2023/04/07 04:05:58;;;;;;;6.97;5.53;;;6.80;99.90;;;;;;5136437;23;20272;-61
2023/04/07 04:08:24;;;;;;;5.50;4.33;;;6.80;99.90;;;;;;4994877;28;20218;-60
2023/04/07 04:10:50;;;;;;;8.57;4.07;;;6.80;99.90;;;;;;4995364;28;20180;-60
2023/04/07 04:13:15;;;;;;;4.40;3.95;;;6.80;99.90;;;;;;4994805;28;20185;-61
2023/04/07 04:15:41;;;;;;;5.43;4.30;;;6.80;99.90;;;;;;4994941;28;20608;-60
2023/04/07 04:18:07;;;;;;;7.13;4.97;;;6.80;99.90;;;;;;4995780;28;20262;-60
2023/04/07 04:20:33;;;;;;;7.20;4.50;;;6.90;99.90;;;;;;4995097;28;20169;-61
2023/04/07 04:22:58;;;;;;;4.47;4.00;;;6.90;99.90;;;;;;4995227;28;20192;-61
2023/04/07 04:25:24;;;;;;;6.03;4.90;;;6.90;99.90;;;;;;4994963;28;20206;-60
2023/04/07 04:27:50;;;;;;;4.47;3.90;;;6.90;99.90;;;;;;4994927;28;20256;-61
2023/04/07 04:30:15;;;;;;;6.03;4.53;;;6.90;99.90;;;;;;4995012;28;20413;-60
2023/04/07 04:32:41;;;;;;;8.60;5.57;;;6.90;99.90;;;;;;4993650;28;20182;-61
2023/04/07 04:35:07;;;;;;;7.37;5.10;;;6.90;99.90;;;;;;4993905;28;20214;-62
2023/04/07 04:37:33;;;;;;;6.63;4.97;;;6.90;99.90;;;;;;4994705;28;20196;-60
2023/04/07 04:39:58;;;;;;;8.50;4.93;;;6.90;99.90;;;;;;4994762;28;20417;-60
2023/04/07 04:42:26;;;;;;;6.20;4.67;;;6.90;99.90;;;;;;4994879;28;20422;-60
2023/04/07 04:44:52;;;;;;;6.72;5.00;;;6.90;99.90;;;;;;4994548;28;20236;-60
2023/04/07 04:47:18;;;;;;;7.27;4.70;;;6.90;99.90;;;;;;4994673;28;20182;-61
2023/04/07 04:49:43;;;;;;;6.17;5.40;;;6.90;99.90;;;;;;4994778;28;20202;-60
2023/04/07 04:52:09;;;;;;;7.97;5.90;;;6.90;99.90;;;;;;4994579;28;20414;-59
2023/04/07 04:54:34;;;;;;;4.77;4.10;;;6.90;99.90;;;;;;4993066;28;20233;-59
2023/04/07 04:57:00;;;;;;;5.03;4.50;;;7.00;99.90;;;;;;4994341;28;20269;-60
2023/04/07 04:59:26;;;;;;;9.83;5.70;;;7.00;99.90;;;;;;4994377;28;20178;-59
2023/04/07 05:01:51;;;;;;;5.77;5.17;;;7.00;99.90;;;;;;4994726;28;20255;-60
2023/04/07 05:04:17;;;;;;;6.27;4.40;;;7.00;99.90;;;;;;4994093;28;20187;-60
2023/04/07 05:06:43;;;;;;;5.47;4.93;;;7.00;99.90;;;;;;4994016;28;20241;-60
2023/04/07 05:09:09;;;;;;;8.80;5.60;;;7.00;99.90;;;;;;4994270;28;20621;-60
2023/04/07 05:11:34;;;;;;;8.70;6.00;;;7.00;99.90;;;;;;4994150;28;20433;-60
2023/04/07 05:14:00;;;;;;;6.23;5.47;;;7.10;99.90;;;;;;4993803;28;20176;-61
2023/04/07 05:16:26;;;;;;;6.13;4.23;;;7.00;99.90;;;;;;4994054;28;20640;-61
2023/04/07 05:18:51;;;;;;;7.47;5.47;;;7.10;99.90;;;;;;4993973;28;20575;-60
2023/04/07 05:21:19;;;;;;;4.10;3.70;;;7.00;99.90;;;;;;4994139;28;20712;-59
2023/04/07 05:23:44;;;;;;;6.88;5.50;;;7.10;99.90;;;;;;4993620;28;20189;-59
2023/04/07 05:26:10;;;;;;;6.27;4.33;;;7.10;99.90;;;;;;4993335;28;20195;-59
2023/04/07 05:28:36;;;;;;;8.37;5.50;;;7.10;99.90;;;;;;4992099;28;20931;-60
2023/04/07 05:31:01;;;;;;;9.23;4.73;;;7.10;99.90;;;;;;4994065;28;20257;-60
2023/04/07 05:33:27;;;;;;;5.30;4.57;;;7.10;99.90;;;;;;4993681;28;20191;-61
2023/04/07 05:35:53;;;;;;;5.27;4.70;;;7.10;99.90;;;;;;4993724;28;20208;-59
2023/04/07 05:38:18;;;;;;;7.23;5.97;;;7.20;99.90;;;;;;4993912;28;20541;-60
2023/04/07 05:40:46;;;;;;;6.77;4.50;;;7.10;99.90;;;;;;4990185;28;20179;-61
2023/04/07 05:43:11;;;;;;;4.47;4.05;;;7.20;99.90;;;;;;4992897;28;20236;-61
2023/04/07 05:45:37;;;;;;;8.23;5.33;;;7.20;99.90;;;;;;4993820;28;20572;-61
2023/04/07 05:48:03;;;;;;;4.83;3.87;;;7.30;99.90;;;;;;4993814;28;20175;-60
2023/04/07 05:50:28;;;;;;;5.70;4.30;;;7.30;99.90;;;;;;4989933;28;20185;-61
2023/04/07 05:52:54;;;;;;;7.13;4.10;;;7.30;99.90;;;;;;4974262;28;20210;-60
2023/04/07 05:55:19;;;;;;;5.23;4.30;;;7.30;99.90;;;;;;4980925;28;20214;-60
2023/04/07 05:57:45;;;;;;;6.70;6.00;;;7.30;99.90;;;;;;4993300;28;20209;-61
2023/04/07 06:00:11;;;;;;;6.13;5.20;;;7.30;99.90;;;;;;4993657;28;20170;-64
2023/04/07 06:02:38;;;;;;;6.50;5.30;;;7.30;99.90;;;;;;4993648;28;20172;-62
2023/04/07 06:05:05;;;;;;;6.13;4.38;;;7.30;99.90;;;;;;4992088;28;20201;-62
2023/04/07 06:07:30;;;;;;;9.05;4.93;;;7.30;99.90;;;;;;4993485;28;20202;-62
2023/04/07 06:09:57;;;;;;;6.97;4.90;;;7.30;99.90;;;;;;4993413;28;20230;-63
2023/04/07 06:12:22;;;;;;;9.18;6.00;;;7.30;99.90;;;;;;4994054;28;20254;-62
2023/04/07 06:14:55;;;;;;;8.07;5.30;;;7.40;99.90;;;;;;4992727;28;20274;-60
2023/04/07 06:17:21;;;;;;;7.78;5.82;;;7.50;99.90;;;;;;4992960;28;20241;-61
2023/04/07 06:19:47;;;;;;;7.90;6.00;;;7.50;99.90;;;;;;4997470;28;20522;-62
2023/04/07 06:22:13;;;;;;;7.38;5.05;;;7.50;99.90;;;;;;4986350;28;20708;-63
2023/04/07 06:24:38;;;;;;;6.90;4.93;;;7.50;99.90;;;;;;4982614;28;20273;-61
2023/04/07 06:27:05;;;;;;;6.30;4.80;;;7.50;99.90;;;;;;4988334;28;20275;-64
2023/04/07 06:29:32;;;;;;;7.78;5.18;;;7.50;99.90;;;;;;4979060;28;20183;-61
2023/04/07 06:31:58;;;;;;;9.25;5.97;;;7.60;99.90;;;;;;4977594;28;20565;-62
2023/04/07 06:34:23;;;;;;;7.23;4.83;;;7.60;99.90;;;;;;4977450;28;20183;-63
2023/04/07 06:36:49;;;;;;;5.77;5.03;;;7.70;99.90;;;;;;4985703;28;20242;-59
2023/04/07 06:39:16;;;;;;;5.50;4.73;;;7.70;99.90;;;;;;4996022;28;20203;-67
2023/04/07 06:41:42;;;;;;;5.22;4.45;;;7.80;99.90;;;;;;4996891;28;20409;-66
2023/04/07 06:44:10;;;;;;;6.53;5.40;;;7.80;99.90;;;;;;4995136;28;20179;-70
2023/04/07 06:46:35;;;;;;;6.38;5.30;;;7.90;99.90;;;;;;4996533;28;20538;-67
2023/04/07 06:49:02;;;;;;;5.97;4.87;;;8.00;99.90;;;;;;4995984;28;20207;-70
2023/04/07 06:51:28;;;;;;;6.68;5.32;;;8.10;99.90;;;;;;4994897;28;20954;-67
2023/04/07 06:53:54;;;;;;;6.23;4.93;;;8.10;99.90;;;;;;4989997;28;20270;-68
2023/04/07 06:56:20;;;;;;;5.53;4.20;;;8.20;99.90;;;;;;4995319;28;20426;-68
2023/04/07 06:58:45;;;;;;;6.27;4.53;;;8.20;99.90;;;;;;4996231;28;20207;-68
2023/04/07 07:01:11;;;;;;;5.83;5.23;;;8.20;99.90;;;;;;4996111;28;20172;-68
2023/04/07 07:03:37;;;;;;;5.87;4.77;;;8.30;99.90;;;;;;4995311;28;20423;-69
2023/04/07 07:06:02;;;;;;;6.83;4.73;;;8.40;99.90;;;;;;4996464;28;20195;-70
2023/04/07 07:08:28;;;;;;;6.27;4.83;;;8.40;99.90;;;;;;4996254;28;20255;-70
2023/04/07 07:10:54;;;;;;;5.40;4.90;;;8.50;99.90;;;;;;4996100;28;20181;-69
2023/04/07 07:13:22;;;;;;;7.00;5.10;;;8.70;99.90;;;;;;4995931;28;20226;-68
2023/04/07 07:15:48;;;;;;;5.40;4.90;;;8.90;99.90;;;;;;4996145;28;20198;-69
2023/04/07 07:18:13;;;;;;;7.97;4.70;;;9.00;99.90;;;;;;4994283;28;20195;-68
2023/04/07 07:20:39;;;;;;;6.43;5.93;;;9.20;99.90;;;;;;4996407;28;20428;-70
2023/04/07 07:23:05;;;;;;;6.53;5.20;;;9.50;99.90;;;;;;4995740;28;20178;-68
2023/04/07 07:25:30;;;;;;;5.40;4.60;;;9.70;99.90;;;;;;4995947;28;20184;-68
2023/04/07 07:27:56;;;;;;;5.70;4.73;;;10.20;99.90;;;;;;4995983;28;20185;-69
2023/04/07 07:30:22;;;;;;;5.13;3.97;;;10.50;99.90;;;;;;4994900;28;20499;-68
2023/04/07 07:32:48;;;;;;;5.40;4.87;;;10.90;99.90;;;;;;4974089;28;20191;-69
2023/04/07 07:35:14;;;;;;;4.23;3.37;;;11.10;99.90;;;;;;4973638;28;20481;-67
2023/04/07 07:37:40;;;;;;;6.63;5.07;;;11.40;99.90;;;;;;4974453;28;20471;-68
2023/04/07 07:40:06;;;;;;;5.53;4.33;;;11.80;99.90;;;;;;4974409;28;20456;-63
2023/04/07 07:42:32;;;;;;;5.70;4.83;;;12.50;99.90;;;;;;4958082;28;20439;-64
2023/04/07 07:44:59;;;;;;;6.83;4.40;;;13.40;99.90;;;;;;4956778;28;20936;-61
2023/04/07 07:47:25;;;;;;;6.17;4.30;;;14.20;99.90;;;;;;4974155;28;20203;-63
2023/04/07 07:49:51;;;;;;;5.13;3.87;;;15.10;99.90;;;;;;4974341;28;20422;-60
2023/04/07 07:52:16;;;;;;;6.00;4.17;;;15.60;99.00;;;;;;4974003;28;20481;-61
2023/04/07 07:54:42;;;;;;;5.30;4.50;;;15.90;97.10;;;;;;4973880;28;20288;-63
2023/04/07 07:57:08;;;;;;;3.93;3.50;;;15.80;96.80;;;;;;4974103;28;20180;-63
2023/04/07 07:59:34;;;;;;;5.00;4.50;;;16.00;96.90;;;;;;4973189;28;20555;-64
2023/04/07 08:01:59;;;;;;;5.37;4.43;;;16.80;95.10;;;;;;4974019;28;20267;-64
2023/04/07 08:04:25;;;;;;;4.33;4.03;;;17.60;96.20;;;;;;4990047;28;20541;-68
2023/04/07 08:06:52;;;;;;;4.80;4.40;;;18.60;92.50;;;;;;4995069;28;20222;-65
2023/04/07 08:09:19;;;;;;;5.27;4.70;;;19.50;91.10;;;;;;4995128;28;20170;-64
2023/04/07 08:11:44;;;;;;;6.00;4.80;;;20.30;91.10;;;;;;4995439;28;20419;-63
2023/04/07 08:14:10;;;;;;;4.27;3.90;;;21.40;90.20;;;;;;4989874;28;20426;-67
2023/04/07 08:16:36;;;;;;;4.83;4.27;;;22.60;83.90;;;;;;4995089;28;20192;-64
2023/04/07 08:19:01;;;;;;;4.60;4.20;;;23.30;79.40;;;;;;4995204;28;20238;-65
2023/04/07 08:21:27;;;;;;;4.50;4.10;;;24.10;77.30;;;;;;4989347;28;20176;-66
2023/04/07 08:23:54;;;;;;;5.43;4.93;;;24.70;74.30;;;;;;4994366;28;20187;-69
2023/04/07 08:26:20;;;;;;;6.53;3.73;;;24.60;67.90;;;;;;4989322;28;20451;-65
2023/04/07 08:28:46;;;;;;;3.43;3.13;;;24.20;69.60;;;;;;4993834;28;20419;-64
2023/04/07 08:31:12;;;;;;;3.80;3.50;;;24.00;69.00;;;;;;4994654;28;20436;-65
2023/04/07 08:33:37;;;;;;;4.00;3.70;;;24.30;69.50;;;;;;4984814;28;20425;-66
2023/04/07 08:36:03;;;;;;;5.00;3.60;;;24.80;70.00;;;;;;4994646;28;20262;-66
2023/04/07 08:38:30;;;;;;;4.40;3.20;;;25.30;69.20;;;;;;4994983;28;20277;-70
2023/04/07 08:41:11;;;;;;;4.70;4.23;;;24.40;66.50;;;;;;4992324;28;20226;-63
2023/04/07 08:43:38;;;;;;;4.63;4.20;;;22.80;68.50;;;;;;4993124;28;20415;-64
2023/04/07 08:46:04;;;;;;;4.73;3.93;;;21.70;71.00;;;;;;4993769;28;20441;-64
2023/04/07 08:48:34;;;;;;;3.20;2.87;;;20.70;73.50;;;;;;4992553;28;20397;-65
2023/04/07 08:51:05;;;;;;;4.03;3.73;;;19.90;75.60;;;;;;4991720;28;20450;-65
2023/04/07 08:53:39;;;;;;;3.30;3.00;;;19.00;78.80;;;;;;4992902;28;20402;-65
2023/04/07 08:56:06;;;;;;;4.10;3.70;;;18.40;81.40;;;;;;4993647;28;20819;-67
2023/04/07 08:58:32;;;;;;;4.43;3.47;;;18.00;81.60;;;;;;4983817;28;20462;-65
2023/04/07 09:00:58;;;;;;;3.27;2.97;;;17.70;82.50;;;;;;4973749;28;20434;-63
2023/04/07 09:03:25;;;;;;;3.67;3.40;;;17.20;84.40;;;;;;4986124;28;20457;-64
2023/04/07 09:05:51;;;;;;;3.57;2.90;;;16.80;87.10;;;;;;4994252;28;20286;-63
2023/04/07 09:08:17;;;;;;;6.50;3.20;;;16.40;88.30;;;;;;4992981;28;20526;-63
2023/04/07 09:10:43;;;;;;;3.87;3.47;;;16.10;88.10;;;;;;4994278;28;20403;-64
2023/04/07 09:13:08;;;;;;;3.70;3.40;;;15.90;90.10;;;;;;4993888;28;20202;-64
2023/04/07 09:15:34;;;;;;;4.80;3.50;;;15.60;90.40;;;;;;4994029;28;20200;-64
2023/04/07 09:18:00;;;;;;;3.80;3.50;;;15.50;91.30;;;;;;4992587;28;20210;-64
2023/04/07 09:20:26;;;;;;;3.10;2.90;;;15.50;91.80;;;;;;4994286;28;20179;-63
2023/04/07 09:22:51;;;;;;;3.47;3.17;;;15.60;91.90;;;;;;4994339;28;20562;-63
2023/04/07 09:25:22;;;;;;;6.80;3.70;;;15.60;91.60;;;;;;4993332;28;20213;-63
2023/04/07 09:27:55;;;;;;;4.83;4.33;;;15.60;92.30;;;;;;4993659;28;20179;-64
2023/04/07 09:30:21;;;;;;;4.23;3.90;;;15.70;92.20;;;;;;4993857;28;20393;-63
2023/04/07 09:32:46;;;;;;;3.50;3.20;;;15.60;91.70;;;;;;4993903;28;20415;-64
2023/04/07 09:35:12;;;;;;;3.53;3.23;;;15.60;91.80;;;;;;4993198;28;20470;-63
2023/04/07 09:37:37;;;;;;;3.40;3.10;;;15.70;91.90;;;;;;4993774;28;20283;-63
2023/04/07 09:40:04;;;;;;;3.30;3.00;;;15.70;92.20;;;;;;4993339;28;20183;-64
2023/04/07 09:42:31;;;;;;;4.63;4.03;;;15.80;91.70;;;;;;4992380;28;20672;-64
2023/04/07 09:44:59;;;;;;;4.77;4.30;;;15.80;91.60;;;;;;4993349;28;20402;-63
2023/04/07 09:47:29;;;;;;;4.53;3.50;;;15.80;92.20;;;;;;4994465;28;20407;-62
2023/04/07 09:49:56;;;;;;;3.60;3.33;;;15.50;92.20;;;;;;4993784;28;20765;-63
2023/04/07 09:52:25;;;;;;;4.13;3.80;;;15.40;91.80;;;;;;4992498;28;20943;-62
2023/04/07 09:54:52;;;;;;;3.50;3.20;;;15.30;92.50;;;;;;4997150;28;20411;-63
2023/04/07 09:57:19;;;;;;;3.57;3.27;;;15.20;92.20;;;;;;4997798;28;20410;-63
2023/04/07 09:59:46;;;;;;;4.17;3.77;;;15.00;92.10;;;;;;4997612;28;20414;-63
2023/04/07 10:02:12;;;;;;;4.77;4.07;;;14.70;92.90;;;;;;4997681;28;20398;-63
2023/04/07 10:04:39;;;;;;;4.27;3.80;;;14.60;93.50;;;;;;4997372;28;20409;-63
2023/04/07 10:07:05;;;;;;;4.03;3.50;;;14.50;93.60;;;;;;4997381;28;20679;-63
2023/04/07 10:09:31;;;;;;;4.20;3.80;;;14.40;93.60;;;;;;4996075;28;20439;-64
2023/04/07 10:11:58;;;;;;;4.90;3.97;;;14.40;93.90;;;;;;4997571;28;20454;-63
2023/04/07 10:14:35;;;;;;;3.93;3.53;;;14.40;94.10;;;;;;4997124;28;20169;-62
2023/04/07 10:17:02;;;;;;;5.13;4.30;;;14.50;93.90;;;;;;4997124;28;20435;-63
2023/04/07 10:19:33;;;;;;;5.40;4.00;;;14.60;93.60;;;;;;4997256;28;20973;-62
2023/04/07 10:22:00;;;;;;;5.20;4.70;;;14.70;93.30;;;;;;4997261;28;20403;-63
2023/04/07 10:24:47;;;;;;;4.83;4.43;;;14.70;93.50;;;;;;4996600;28;20457;-63
2023/04/07 10:27:18;;;;;;;6.17;3.33;;;14.60;93.10;;;;;;4997187;28;20412;-62
2023/04/07 10:29:47;;;;;;;5.70;4.90;;;14.40;94.10;;;;;;4997418;28;20422;-62
2023/04/07 10:32:13;;;;;;;6.33;4.17;;;14.40;93.80;;;;;;4997114;28;20773;-62
2023/04/07 10:34:53;;;;;;;4.63;4.03;;;14.50;93.90;;;;;;4996769;28;20496;-63
2023/04/07 10:37:21;;;;;;;4.73;3.90;;;14.70;93.60;;;;;;4997070;28;20485;-62
2023/04/07 10:40:18;;;;;;;3.97;3.40;;;14.80;93.00;;;;;;4996688;28;20449;-63
2023/04/07 10:42:46;;;;;;;3.53;3.27;;;14.70;93.30;;;;;;4990364;28;20435;-65
2023/04/07 10:45:12;;;;;;;3.90;3.60;;;14.70;93.80;;;;;;4996333;28;20511;-63
2023/04/07 10:48:02;;;;;;;3.53;3.20;;;14.90;93.60;;;;;;4996801;28;20909;-63
2023/04/07 10:50:28;;;;;;;4.97;3.23;;;15.00;92.90;;;;;;4997097;28;20530;-64
2023/04/07 10:53:11;;;;;;;6.10;4.53;;;15.40;93.10;;;;;;4996532;28;20749;-63
2023/04/07 10:55:42;;;;;;;3.47;3.17;;;15.80;92.40;;;;;;4996064;28;20847;-64
2023/04/07 10:58:15;;;;;;;4.17;3.73;;;16.20;92.00;;;;;;4997069;28;20455;-63
2023/04/07 11:00:41;;;;;;;3.40;2.40;;;16.60;90.90;;;;;;4996662;28;20486;-62
2023/04/07 11:03:14;;;;;;;4.13;3.83;;;16.90;90.50;;;;;;4996392;28;20439;-63
2023/04/07 11:05:40;;;;;;;4.67;3.67;;;17.00;89.90;;;;;;4996554;28;20430;-63
2023/04/07 11:08:06;;;;;;;5.77;3.17;;;17.10;89.40;;;;;;4996364;28;20427;-63
2023/04/07 11:10:35;;;;;;;4.37;3.50;;;17.00;88.30;;;;;;4995851;28;20438;-64
2023/04/07 11:13:06;;;;;;;4.07;3.63;;;16.80;88.70;;;;;;4995791;28;20431;-64
2023/04/07 11:15:33;;;;;;;4.80;3.47;;;16.50;89.30;;;;;;4996459;28;20435;-64
2023/04/07 11:18:19;;;;;;;4.20;3.20;;;16.30;88.30;;;;;;4996427;28;20901;-63
2023/04/07 11:20:53;;;;;;;5.63;3.40;;;16.00;88.80;;;;;;4996293;28;20403;-64
2023/04/07 11:23:22;;;;;;;2.83;2.63;;;15.80;90.00;;;;;;4995785;28;20418;-63
2023/04/07 11:25:49;;;;;;;9.87;4.67;;;15.50;90.60;;;;;;4996182;28;20877;-62
2023/04/07 11:28:15;;;;;;;4.57;3.57;;;15.50;91.50;;;;;;4996008;28;20437;-63
2023/04/07 11:30:48;;;;;;;3.50;3.20;;;15.40;91.20;;;;;;4996231;28;20418;-63
2023/04/07 11:33:15;;;;;;;3.73;3.43;;;15.50;91.20;;;;;;4995876;28;20750;-62
2023/04/07 11:35:55;;;;;;;3.20;3.00;;;15.40;91.20;;;;;;4996152;28;20431;-63
2023/04/07 11:38:22;;;;;;;4.17;3.60;;;15.40;90.90;;;;;;4995709;28;20489;-63
2023/04/07 11:40:48;;;;;;;3.00;2.80;;;15.60;91.50;;;;;;4995682;28;20488;-63
2023/04/07 11:43:22;;;;;;;5.60;3.00;;;15.70;90.60;;;;;;4995795;28;20736;-63
2023/04/07 11:46:04;;;;;;;3.77;3.30;;;16.00;90.40;;;;;;4995766;28;20204;-63
2023/04/07 11:48:31;;;;;;;3.80;3.50;;;16.10;90.50;;;;;;4995975;28;20412;-64
2023/04/07 11:50:58;;;;;;;4.40;2.77;;;16.20;89.60;;;;;;4994396;28;20441;-63
2023/04/07 11:53:33;;;;;;;3.10;2.80;;;16.20;88.60;;;;;;4995302;28;20858;-63
2023/04/07 11:56:03;;;;;;;2.87;2.37;;;16.20;87.80;;;;;;4995589;28;20443;-64
2023/04/07 11:58:29;;;;;;;4.57;3.27;;;16.20;87.60;;;;;;4994166;28;20466;-63
2023/04/07 12:00:56;;;;;;;2.23;2.07;;;16.00;87.00;;;;;;4994354;28;20416;-62
2023/04/07 12:03:21;;;;;;;3.07;2.77;;;15.90;87.20;;;;;;4995225;28;20196;-62
2023/04/07 12:05:47;;;;;;;5.43;3.13;;;15.80;87.40;;;;;;4995277;28;20484;-64
2023/04/07 12:08:15;;;;;;;3.30;3.00;;;15.80;86.90;;;;;;4995462;28;20492;-64
2023/04/07 12:10:41;;;;;;;3.73;2.77;;;15.80;88.20;;;;;;4995980;28;20259;-63
2023/04/07 12:13:08;;;;;;;4.87;3.37;;;15.60;88.50;;;;;;4994892;28;20515;-63
2023/04/07 12:15:35;;;;;;;4.83;3.23;;;15.40;89.60;;;;;;4994653;28;20438;-63
2023/04/07 12:18:02;;;;;;;3.23;2.97;;;15.30;90.50;;;;;;4994012;28;20465;-63
2023/04/07 12:20:28;;;;;;;3.87;3.57;;;15.00;90.90;;;;;;4994610;28;20456;-62
2023/04/07 12:22:53;;;;;;;4.43;3.57;;;14.70;92.00;;;;;;4995176;28;20971;-63
2023/04/07 12:25:19;;;;;;;4.60;3.97;;;14.30;92.70;;;;;;4994638;28;20438;-63
2023/04/07 12:27:45;;;;;;;4.57;3.70;;;14.10;93.10;;;;;;4994827;28;20179;-62
2023/04/07 12:30:12;;;;;;;5.00;4.37;;;13.90;93.60;;;;;;4995068;28;20171;-62
2023/04/07 12:32:37;;;;;;;3.73;3.10;;;13.80;94.20;;;;;;4995091;28;20955;-61
2023/04/07 12:35:04;;;;;;;4.00;3.10;;;13.80;94.50;;;;;;4994171;28;20446;-63
2023/04/07 12:37:31;;;;;;;4.33;3.93;;;13.80;94.10;;;;;;4994589;28;20198;-63
2023/04/07 12:39:57;;;;;;;3.40;3.20;;;13.80;94.60;;;;;;4994549;28;20421;-63
2023/04/07 12:42:23;;;;;;;4.43;3.23;;;13.70;94.60;;;;;;4993605;28;20434;-63
2023/04/07 12:44:49;;;;;;;3.13;2.83;;;13.70;94.20;;;;;;4993947;28;20426;-63
2023/04/07 12:47:15;;;;;;;4.17;3.80;;;13.60;95.30;;;;;;4994600;28;20178;-63
2023/04/07 12:49:40;;;;;;;5.00;4.00;;;13.60;96.20;;;;;;4994716;28;20222;-63
2023/04/07 12:52:06;;;;;;;8.30;4.80;;;13.60;96.20;;;;;;4993174;28;20426;-62
2023/04/07 12:54:32;;;;;;;5.53;4.23;;;13.50;96.90;;;;;;4993760;28;20172;-62
2023/04/07 12:56:58;;;;;;;3.63;3.33;;;13.50;97.40;;;;;;4993019;28;20251;-62
2023/04/07 12:59:24;;;;;;;4.93;4.50;;;13.40;98.20;;;;;;4994324;28;20260;-64
2023/04/07 13:01:50;;;;;;;3.50;3.30;;;13.40;98.90;;;;;;4994421;28;20410;-62
2023/04/07 13:04:16;;;;;;;7.70;5.47;;;13.40;99.10;;;;;;4993972;28;20406;-62
2023/04/07 13:06:42;;;;;;;6.60;5.33;;;13.40;99.90;;;;;;4992554;28;20261;-63
2023/04/07 13:09:08;;;;;;;7.33;4.03;;;13.40;99.90;;;;;;4993460;28;20427;-63
2023/04/07 13:11:34;;;;;;;4.83;4.33;;;13.40;99.90;;;;;;4993621;28;20190;-64
2023/04/07 13:14:00;;;;;;;5.63;5.03;;;13.50;99.90;;;;;;4991736;28;20544;-63
2023/04/07 13:16:26;;;;;;;3.60;3.30;;;13.50;99.90;;;;;;4993525;28;20521;-63
2023/04/07 13:18:52;;;;;;;3.83;3.50;;;13.60;99.90;;;;;;4993240;28;20199;-64
2023/04/07 13:21:17;;;;;;;3.97;3.47;;;13.60;99.90;;;;;;4992992;28;20179;-64
2023/04/07 13:23:43;;;;;;;6.30;4.17;;;13.70;99.90;;;;;;4992796;28;20194;-63
2023/04/07 13:26:09;;;;;;;7.67;5.03;;;13.70;99.90;;;;;;4992145;28;20482;-63
2023/04/07 13:28:34;;;;;;;3.67;3.37;;;13.70;99.90;;;;;;4992570;28;20225;-62
2023/04/07 13:31:00;;;;;;;7.47;3.53;;;13.80;99.90;;;;;;4993691;28;20215;-62
2023/04/07 13:33:25;;;;;;;5.03;4.60;;;13.80;99.90;;;;;;4990866;28;20187;-62
2023/04/07 13:35:51;;;;;;;4.00;3.60;;;13.80;99.90;;;;;;4993035;28;20319;-62
2023/04/07 13:38:16;;;;;;;3.50;3.20;;;13.90;99.90;;;;;;4993108;28;20292;-62
2023/04/07 13:40:43;;;;;;;5.53;4.47;;;13.90;99.90;;;;;;4993644;28;20171;-62
2023/04/07 13:43:11;;;;;;;3.33;3.00;;;14.00;99.90;;;;;;4992473;28;20183;-64
2023/04/07 13:45:36;;;;;;;6.30;4.40;;;14.10;99.90;;;;;;4992613;28;20469;-64
2023/04/07 13:48:02;;;;;;;4.40;4.00;;;14.10;99.90;;;;;;4991750;28;20512;-63
2023/04/07 13:50:28;;;;;;;3.83;3.40;;;14.00;99.90;;;;;;4993377;28;20175;-63
2023/04/07 13:52:54;;;;;;;3.93;3.40;;;14.10;99.90;;;;;;4992870;28;20518;-63
2023/04/07 13:55:20;;;;;;;3.63;3.33;;;14.00;99.60;;;;;;4992818;28;20219;-62
2023/04/07 13:57:45;;;;;;;4.10;3.70;;;14.10;99.60;;;;;;4992954;28;20502;-62
2023/04/07 14:00:13;;;;;;;2.87;2.67;;;14.10;99.60;;;;;;4991940;28;20908;-63
2023/04/07 14:02:38;;;;;;;3.60;3.30;;;14.10;99.80;;;;;;4992598;28;20172;-63
2023/04/07 14:05:04;;;;;;;3.17;2.90;;;14.20;99.70;;;;;;4992644;28;20437;-64
2023/04/07 14:07:30;;;;;;;3.57;3.20;;;14.20;99.30;;;;;;4992985;28;20241;-63
2023/04/07 14:09:57;;;;;;;3.07;2.83;;;14.10;98.10;;;;;;4993541;28;20463;-63
2023/04/07 14:12:23;;;;;;;3.33;3.10;;;14.10;98.20;;;;;;4992717;28;20273;-63
2023/04/07 14:14:51;;;;;;;3.17;2.33;;;14.10;98.50;;;;;;4992642;28;20518;-64
2023/04/07 14:17:17;;;;;;;2.97;2.67;;;14.20;98.40;;;;;;4992798;28;20522;-63
2023/04/07 14:19:43;;;;;;;2.50;2.40;;;14.30;98.10;;;;;;4992722;28;20412;-64
2023/04/07 14:22:09;;;;;;;4.13;3.60;;;14.30;97.80;;;;;;4992723;28;20423;-62
2023/04/07 14:24:34;;;;;;;2.63;2.50;;;14.30;97.50;;;;;;4992607;28;20408;-72
2023/04/07 14:27:02;;;;;;;1.83;1.73;;;14.40;97.00;;;;;;4991616;28;20675;-74
2023/04/07 14:29:28;;;;;;;2.70;2.50;;;14.50;96.60;;;;;;4991229;28;20180;-70
2023/04/07 14:31:53;;;;;;;4.57;2.70;;;14.60;96.60;;;;;;4992569;28;20434;-63
2023/04/07 14:34:19;;;;;;;3.33;2.57;;;14.70;96.00;;;;;;4992386;28;20190;-61
2023/04/07 14:37:03;;;;;;;2.70;1.83;;;14.80;95.80;;;;;;4992937;28;20209;-62
2023/04/07 14:39:28;;;;;;;2.23;2.13;;;14.80;95.20;;;;;;4993633;28;20284;-61
2023/04/07 14:41:54;;;;;;;2.50;2.30;;;14.90;95.00;;;;;;4996075;28;20429;-62
2023/04/07 14:44:20;;;;;;;2.67;2.47;;;14.90;94.80;;;;;;4996124;28;20214;-61
2023/04/07 14:46:47;;;;;;;2.70;2.50;;;15.00;94.90;;;;;;4995838;28;20480;-62
2023/04/07 14:49:13;;;;;;;3.43;2.20;;;15.00;94.70;;;;;;4995762;28;20431;-61
2023/04/07 14:51:39;;;;;;;2.67;2.47;;;15.10;94.30;;;;;;4995737;28;20497;-63
2023/04/07 14:54:05;;;;;;;2.47;2.27;;;15.10;94.40;;;;;;4995712;28;20414;-61
2023/04/07 14:56:31;;;;;;;2.60;2.17;;;15.10;94.50;;;;;;4995699;28;20251;-61
2023/04/07 14:58:56;;;;;;;3.30;2.30;;;15.10;94.50;;;;;;4995796;28;20283;-61
2023/04/07 15:01:22;;;;;;;2.40;2.30;;;15.10;94.20;;;;;;4987102;28;20645;-62
2023/04/07 15:03:47;;;;;;;2.50;2.40;;;15.00;94.10;;;;;;4988763;28;20176;-62
2023/04/07 15:06:14;;;;;;;2.83;2.57;;;15.00;94.50;;;;;;4995500;28;20682;-62
2023/04/07 15:08:39;;;;;;;2.90;2.70;;;15.00;94.50;;;;;;4995486;28;20507;-62
2023/04/07 15:11:06;;;;;;;2.60;2.50;;;15.00;94.30;;;;;;4995661;28;20474;-62
2023/04/07 15:13:32;;;;;;;3.33;2.60;;;14.90;94.60;;;;;;4995347;28;20186;-62
2023/04/07 15:16:12;;;;;;;2.63;2.43;;;14.90;94.30;;;;;;4995676;28;20574;-62
2023/04/07 15:18:40;;;;;;;2.03;1.80;;;14.90;94.20;;;;;;4995304;28;20550;-63
2023/04/07 15:21:10;;;;;;;2.97;2.77;;;14.80;94.60;;;;;;4995326;28;20424;-64
2023/04/07 15:23:37;;;;;;;3.20;3.00;;;14.70;94.90;;;;;;4994866;28;20434;-62
2023/04/07 15:26:06;;;;;;;3.03;2.83;;;14.50;95.40;;;;;;4995326;28;20981;-62
2023/04/07 15:28:32;;;;;;;4.53;2.83;;;14.30;95.90;;;;;;4993620;28;20821;-63
2023/04/07 15:30:59;;;;;;;2.90;2.70;;;14.20;96.60;;;;;;4994966;28;20498;-62
2023/04/07 15:33:26;;;;;;;3.23;3.03;;;14.10;96.90;;;;;;4995338;28;20176;-62
2023/04/07 15:35:51;;;;;;;3.10;2.90;;;14.10;97.30;;;;;;4995300;28;20458;-63
2023/04/07 15:38:17;;;;;;;3.10;2.87;;;14.00;97.70;;;;;;4995187;28;20527;-63
2023/04/07 15:40:43;;;;;;;3.37;3.00;;;13.80;97.90;;;;;;4994896;28;20175;-62
2023/04/07 15:43:10;;;;;;;3.20;2.90;;;13.70;98.20;;;;;;4994657;28;20190;-62
2023/04/07 15:45:42;;;;;;;2.67;2.47;;;13.50;98.70;;;;;;4995281;28;20218;-66
2023/04/07 15:48:09;;;;;;;6.03;3.20;;;13.40;98.80;;;;;;4994312;28;20458;-67
2023/04/07 15:50:35;;;;;;;3.10;2.90;;;13.40;99.00;;;;;;4994364;28;20409;-66
2023/04/07 15:53:04;;;;;;;4.20;3.37;;;13.20;99.00;;;;;;4994027;28;20500;-68
2023/04/07 15:55:34;;;;;;;4.30;3.07;;;13.20;99.20;;;;;;4995431;28;20525;-68
2023/04/07 15:58:01;;;;;;;3.00;2.73;;;13.10;99.50;;;;;;4994792;28;20465;-68
2023/04/07 16:00:28;;;;;;;3.70;3.40;;;13.10;99.80;;;;;;4995629;28;20429;-68
2023/04/07 16:02:54;;;;;;;3.67;3.37;;;13.10;99.90;;;;;;4995455;28;20408;-68
2023/04/07 16:05:20;;;;;;;2.43;2.20;;;13.00;99.40;;;;;;4993661;28;20446;-68
2023/04/07 16:07:46;;;;;;;3.03;2.80;;;13.00;99.00;;;;;;4995110;28;20523;-68
2023/04/07 16:10:12;;;;;;;2.47;2.27;;;13.00;98.30;;;;;;4994811;28;20891;-67
2023/04/07 16:12:39;;;;;;;2.43;2.23;;;13.00;98.00;;;;;;4993496;28;20206;-67
2023/04/07 16:15:06;;;;;;;3.50;2.37;;;13.10;97.50;;;;;;4987005;28;20449;-67
2023/04/07 16:17:32;;;;;;;2.50;2.30;;;13.10;97.00;;;;;;4987921;28;20445;-67
2023/04/07 16:19:58;;;;;;;2.83;2.07;;;13.20;96.50;;;;;;4985571;28;20423;-67
2023/04/07 16:22:24;;;;;;;1.87;1.73;;;13.10;96.30;;;;;;4983701;28;20420;-66
2023/04/07 16:24:50;;;;;;;3.10;2.30;;;13.20;96.40;;;;;;4984739;28;20260;-67
2023/04/07 16:27:16;;;;;;;2.30;2.10;;;13.20;96.40;;;;;;4987817;28;20509;-67
2023/04/07 16:29:41;;;;;;;1.83;1.73;;;13.20;96.40;;;;;;4983571;28;20179;-70
2023/04/07 16:32:07;;;;;;;3.30;3.00;;;13.20;96.60;;;;;;4985338;28;20186;-68
2023/04/07 16:34:33;;;;;;;2.00;1.90;;;13.20;96.50;;;;;;4984312;28;20238;-69
2023/04/07 16:36:59;;;;;;;1.73;1.73;;;13.20;96.80;;;;;;4984743;28;20942;-67
2023/04/07 16:39:25;;;;;;;1.43;1.43;;;13.20;96.80;;;;;;4983323;28;20456;-67
2023/04/07 16:41:50;;;;;;;2.43;2.23;;;13.20;96.50;;;;;;4993950;28;20230;-66
2023/04/07 16:44:16;;;;;;;1.90;1.80;;;13.10;96.30;;;;;;4994532;28;20228;-65
2023/04/07 16:46:41;;;;;;;4.50;3.87;;;13.00;95.90;;;;;;4994462;28;20202;-64
2023/04/07 16:49:09;;;;;;;1.90;1.80;;;13.00;96.20;;;;;;4994491;28;20209;-65
2023/04/07 16:51:34;;;;;;;4.10;2.53;;;12.90;96.10;;;;;;4994351;28;20189;-64
2023/04/07 16:54:00;;;;;;;1.97;1.87;;;12.90;96.40;;;;;;4993684;28;20789;-64